Time;durP1;ratioP1;P1;durP2;ratioP2;P2;SDS_P1;SDS_P2;PMS_P1;PMS_P2;Temp;Humidity;BMP_temperature;BMP_pressure;BME280_temperature;BME280_humidity;BME280_pressure;Samples;Min_cycle;Max_cycle;Signal;HPM_P1;HPM_P2
2023/05/24 00:00:39;;;;;;;;;;;;;;;8.81;76.40;102400.25;5050167;28;1196;-72
2023/05/24 00:03:05;;;;;;;;;;;;;;;8.79;76.20;102402.09;5061210;28;1960;-71
2023/05/24 00:05:30;;;;;;;;;;;;;;;8.80;76.65;102403.75;5060841;28;1133;-70
2023/05/24 00:07:56;;;;;;;;;;;;;;;8.78;76.82;102400.41;5061196;28;1503;-71
2023/05/24 00:10:21;;;;;;;;;;;;;;;8.78;76.70;102397.84;5067632;28;1210;-72
2023/05/24 00:12:46;;;;;;;;;;;;;;;8.76;77.22;102391.88;5059318;28;1162;-70
2023/05/24 00:15:11;;;;;;;;;;;;;;;8.79;77.04;102396.91;5061619;28;1041;-71
2023/05/24 00:17:39;;;;;;;;;;;;;;;8.77;77.16;102390.94;5064516;28;1160;-71
2023/05/24 00:20:06;;;;;;;;;;;;;;;8.76;77.21;102381.53;5040305;28;1223;-71
2023/05/24 00:22:32;;;;;;;;;;;;;;;8.76;77.43;102381.53;5059179;28;1090;-71
2023/05/24 00:24:57;;;;;;;;;;;;;;;8.74;76.89;102383.38;5067913;28;1948;-70
2023/05/24 00:27:22;;;;;;;;;;;;;;;8.71;77.43;102378.31;5064352;28;1233;-71
2023/05/24 00:29:47;;;;;;;;;;;;;;;8.72;77.69;102372.25;5061668;28;1250;-70
2023/05/24 00:32:13;;;;;;;;;;;;;;;8.71;77.63;102373.16;5067703;28;1114;-72
2023/05/24 00:34:38;;;;;;;;;;;;;;;8.70;77.81;102372.31;5064191;28;1078;-71
2023/05/24 00:37:03;;;;;;;;;;;;;;;8.69;77.79;102380.16;5063476;28;1031;-72
2023/05/24 00:39:28;;;;;;;;;;;;;;;8.65;78.10;102368.28;5063798;28;1148;-70
2023/05/24 00:41:54;;;;;;;;;;;;;;;8.61;78.31;102377.13;5058286;28;1111;-70
2023/05/24 00:44:19;;;;;;;;;;;;;;;8.57;78.65;102380.75;5065306;28;1906;-71
2023/05/24 00:46:44;;;;;;;;;;;;;;;8.52;78.62;102374.06;5060422;28;1071;-71
2023/05/24 00:49:09;;;;;;;;;;;;;;;8.52;78.49;102368.03;5063600;28;1189;-71
2023/05/24 00:51:35;;;;;;;;;;;;;;;8.50;79.01;102360.38;5063882;28;1124;-70
2023/05/24 00:54:01;;;;;;;;;;;;;;;8.47;79.05;102365.66;5066921;28;1051;-71
2023/05/24 00:56:26;;;;;;;;;;;;;;;8.43;79.00;102364.16;5065072;28;1107;-71
2023/05/24 00:58:55;;;;;;;;;;;;;;;8.41;79.38;102365.97;5052883;28;951;-71
2023/05/24 01:01:24;;;;;;;;;;;;;;;8.43;79.09;102359.00;5061731;28;1116;-70
2023/05/24 01:03:50;;;;;;;;;;;;;;;8.41;79.72;102358.22;5036382;28;1894;-72
2023/05/24 01:06:15;;;;;;;;;;;;;;;8.36;79.30;102362.75;5062912;28;1098;-71
2023/05/24 01:08:42;;;;;;;;;;;;;;;8.34;79.33;102354.22;5059282;28;1092;-71
2023/05/24 01:11:10;;;;;;;;;;;;;;;8.33;79.70;102347.38;5057983;28;1213;-70
2023/05/24 01:13:56;;;;;;;;;;;;;;;8.32;79.76;102350.88;5045191;28;1155;-71
2023/05/24 01:16:23;;;;;;;;;;;;;;;8.34;79.30;102343.03;5041832;28;5334;-72
2023/05/24 01:18:53;;;;;;;;;;;;;;;8.32;80.19;102344.88;5062322;28;1108;-71
2023/05/24 01:21:25;;;;;;;;;;;;;;;8.31;80.08;102349.19;5056368;28;1138;-71
2023/05/24 01:23:56;;;;;;;;;;;;;;;8.30;80.11;102341.50;5072401;28;1893;-71
2023/05/24 01:26:30;;;;;;;;;;;;;;;8.28;80.37;102349.34;5058897;28;1196;-70
2023/05/24 01:28:56;;;;;;;;;;;;;;;8.25;80.28;102339.13;5074715;28;1045;-70
2023/05/24 01:31:21;;;;;;;;;;;;;;;8.22;80.08;102344.47;5069339;28;1308;-70
2023/05/24 01:33:47;;;;;;;;;;;;;;;8.20;80.23;102341.97;5063813;28;1009;-70
2023/05/24 01:36:12;;;;;;;;;;;;;;;8.17;80.71;102346.44;5065691;28;1121;-70
2023/05/24 01:38:38;;;;;;;;;;;;;;;8.17;80.83;102351.59;5061776;28;1053;-70
2023/05/24 01:41:18;;;;;;;;;;;;;;;8.15;80.76;102343.09;5069460;28;1096;-71
2023/05/24 01:43:49;;;;;;;;;;;;;;;8.15;80.84;102345.66;5062770;28;1957;-71
2023/05/24 01:46:26;;;;;;;;;;;;;;;8.14;81.02;102346.56;5062210;28;1082;-71
2023/05/24 01:48:57;;;;;;;;;;;;;;;8.13;81.42;102347.47;5060514;28;1096;-71
2023/05/24 01:51:23;;;;;;;;;;;;;;;8.11;81.55;102346.72;5061776;28;1114;-71
2023/05/24 01:53:49;;;;;;;;;;;;;;;8.08;80.83;102350.25;5043583;28;1770;-71
2023/05/24 01:56:16;;;;;;;;;;;;;;;8.05;81.08;102353.00;5060478;28;1848;-70
2023/05/24 01:58:42;;;;;;;;;;;;;;;8.04;81.49;102355.66;5065658;28;1110;-70
2023/05/24 02:01:08;;;;;;;;;;;;;;;7.99;81.75;102354.13;5069588;28;1260;-70
2023/05/24 02:03:33;;;;;;;;;;;;;;;8.01;81.49;102354.06;5047468;28;2344;-71
2023/05/24 02:05:58;;;;;;;;;;;;;;;8.03;82.03;102359.13;5073720;28;1140;-72
2023/05/24 02:08:23;;;;;;;;;;;;;;;8.03;81.95;102364.31;5070685;28;1066;-71
2023/05/24 02:10:49;;;;;;;;;;;;;;;7.98;82.03;102355.03;5063019;28;1502;-71
2023/05/24 02:13:16;;;;;;;;;;;;;;;7.96;82.10;102359.41;5069955;28;974;-71
2023/05/24 02:15:43;;;;;;;;;;;;;;;7.97;82.92;102361.13;5070865;28;1068;-71
2023/05/24 02:18:10;;;;;;;;;;;;;;;7.97;83.30;102363.72;5070414;28;1039;-71
2023/05/24 02:20:35;;;;;;;;;;;;;;;7.96;82.90;102367.16;5068409;28;1278;-72
2023/05/24 02:23:01;;;;;;;;;;;;;;;7.96;82.49;102366.34;5056483;28;1293;-70
2023/05/24 02:25:26;;;;;;;;;;;;;;;7.94;83.69;102356.09;5064866;28;1991;-69
2023/05/24 02:27:51;;;;;;;;;;;;;;;7.92;83.33;102363.06;5068922;28;1111;-71
2023/05/24 02:30:17;;;;;;;;;;;;;;;7.90;84.86;102358.88;5054287;28;1078;-70
2023/05/24 02:32:42;;;;;;;;;;;;;;;7.89;83.50;102358.03;5076562;28;1173;-70
2023/05/24 02:35:07;;;;;;;;;;;;;;;7.88;84.27;102351.19;5066304;28;1442;-71
2023/05/24 02:37:32;;;;;;;;;;;;;;;7.88;83.91;102356.38;5068338;28;1041;-70
2023/05/24 02:39:57;;;;;;;;;;;;;;;7.88;84.89;102366.69;5067330;28;1104;-71
2023/05/24 02:42:23;;;;;;;;;;;;;;;7.88;83.80;102364.13;5069859;28;997;-70
2023/05/24 02:44:51;;;;;;;;;;;;;;;7.88;83.99;102366.69;5073327;28;1953;-70
2023/05/24 02:47:16;;;;;;;;;;;;;;;7.89;84.35;102365.78;5069719;28;1157;-70
2023/05/24 02:49:41;;;;;;;;;;;;;;;7.89;84.57;102368.38;5072772;28;1168;-71
2023/05/24 02:52:06;;;;;;;;;;;;;;;7.88;83.83;102355.53;5060013;28;1057;-71
2023/05/24 02:54:32;;;;;;;;;;;;;;;7.88;84.66;102356.38;5068537;28;1175;-71
2023/05/24 02:56:57;;;;;;;;;;;;;;;7.90;84.30;102349.38;5059629;28;1112;-75
2023/05/24 02:59:22;;;;;;;;;;;;;;;7.90;84.56;102354.53;5049408;28;1184;-71
2023/05/24 03:01:48;;;;;;;;;;;;;;;7.88;85.63;102356.38;5063161;28;1064;-71
2023/05/24 03:04:13;;;;;;;;;;;;;;;7.86;84.35;102355.59;5041575;28;1901;-71
2023/05/24 03:06:38;;;;;;;;;;;;;;;7.86;84.68;102358.19;5061798;28;1092;-70
2023/05/24 03:09:04;;;;;;;;;;;;;;;7.88;84.58;102356.38;5068763;28;1188;-71
2023/05/24 03:11:29;;;;;;;;;;;;;;;7.92;84.95;102362.25;5058864;28;1068;-70
2023/05/24 03:13:54;;;;;;;;;;;;;;;7.89;84.62;102352.88;5059184;28;1140;-71
2023/05/24 03:16:19;;;;;;;;;;;;;;;7.86;84.59;102363.34;5063676;28;1088;-70
2023/05/24 03:18:45;;;;;;;;;;;;;;;7.82;84.71;102351.47;5069441;28;989;-70
2023/05/24 03:21:10;;;;;;;;;;;;;;;7.81;84.41;102354.97;5037728;28;1326;-71
2023/05/24 03:23:35;;;;;;;;;;;;;;;7.81;84.79;102344.66;5071930;28;1926;-71
2023/05/24 03:26:00;;;;;;;;;;;;;;;7.80;84.89;102349.84;5060131;28;1084;-70
2023/05/24 03:28:26;;;;;;;;;;;;;;;7.78;84.87;102349.94;5046965;28;1234;-70
2023/05/24 03:30:51;;;;;;;;;;;;;;;7.76;85.60;102338.00;5068525;28;1149;-70
2023/05/24 03:33:16;;;;;;;;;;;;;;;7.73;85.50;102346.72;5065970;28;1052;-70
2023/05/24 03:35:42;;;;;;;;;;;;;;;7.73;85.14;102342.38;5073070;28;1075;-71
2023/05/24 03:38:07;;;;;;;;;;;;;;;7.72;84.95;102339.88;5069101;28;1076;-70
2023/05/24 03:40:33;;;;;;;;;;;;;;;7.73;85.08;102346.72;5068805;28;1101;-70
2023/05/24 03:42:58;;;;;;;;;;;;;;;7.71;86.08;102343.38;5066117;28;1457;-71
2023/05/24 03:45:24;;;;;;;;;;;;;;;7.69;85.36;102343.47;5060973;28;1952;-70
2023/05/24 03:47:50;;;;;;;;;;;;;;;7.69;86.11;102340.03;5061177;28;1121;-70
2023/05/24 03:50:15;;;;;;;;;;;;;;;7.66;86.14;102332.41;5044927;28;1271;-71
2023/05/24 03:52:41;;;;;;;;;;;;;;;7.67;85.81;102336.66;5062563;28;1137;-71
2023/05/24 03:55:06;;;;;;;;;;;;;;;7.67;86.36;102336.66;5061445;28;1399;-71
2023/05/24 03:57:31;;;;;;;;;;;;;;;7.69;85.53;102329.72;5061913;28;1205;-70
2023/05/24 03:59:59;;;;;;;;;;;;;;;7.66;85.98;102320.34;5066898;28;1255;-70
2023/05/24 04:02:24;;;;;;;;;;;;;;;7.68;86.24;102317.69;5067412;28;1173;-70
2023/05/24 04:04:49;;;;;;;;;;;;;;;7.64;86.59;102323.91;5059175;28;1878;-71
2023/05/24 04:07:15;;;;;;;;;;;;;;;7.62;86.63;102328.28;5063561;28;1242;-72
2023/05/24 04:09:40;;;;;;;;;;;;;;;7.59;89.45;102331.03;5054066;28;1818;-72
2023/05/24 04:12:05;;;;;;;;;;;;;;;7.58;89.05;102326.78;5060300;28;1355;-70
2023/05/24 04:14:31;;;;;;;;;;;;;;;7.58;89.27;102326.78;5068360;28;1175;-70
2023/05/24 04:16:57;;;;;;;;;;;;;;;7.55;88.98;102329.47;5067192;28;1324;-70
2023/05/24 04:19:22;;;;;;;;;;;;;;;7.53;87.51;102329.56;5067412;28;1107;-70
2023/05/24 04:21:48;;;;;;;;;;;;;;;7.53;88.31;102339.03;5063145;28;1091;-69
2023/05/24 04:24:13;;;;;;;;;;;;;;;7.54;88.73;102332.97;5058964;28;1882;-70
2023/05/24 04:26:39;;;;;;;;;;;;;;;7.52;89.27;102337.38;5059882;28;978;-70
2023/05/24 04:29:04;;;;;;;;;;;;;;;7.53;90.41;102334.72;5065083;28;1068;-70
2023/05/24 04:31:32;;;;;;;;;;;;;;;7.53;91.09;102336.47;5072628;28;1158;-70
2023/05/24 04:33:58;;;;;;;;;;;;;;;7.54;91.55;102330.41;5062471;28;1008;-70
2023/05/24 04:36:24;;;;;;;;;;;;;;;7.55;92.51;102327.72;5049659;28;1200;-70
2023/05/24 04:38:52;;;;;;;;;;;;;;;7.57;91.42;102330.25;5042570;28;1127;-71
2023/05/24 04:41:17;;;;;;;;;;;;;;;7.58;92.39;102331.94;5066490;28;1125;-70
2023/05/24 04:43:43;;;;;;;;;;;;;;;7.61;93.85;102334.38;5053254;28;1965;-71
2023/05/24 04:46:09;;;;;;;;;;;;;;;7.62;93.51;102338.63;5064294;28;1378;-70
2023/05/24 04:48:34;;;;;;;;;;;;;;;7.65;93.77;102334.16;5060480;28;1277;-70
2023/05/24 04:50:59;;;;;;;;;;;;;;;7.68;93.37;102343.50;5064813;28;1152;-70
2023/05/24 04:53:24;;;;;;;;;;;;;;;7.71;94.06;102338.22;5061158;28;1245;-69
2023/05/24 04:55:50;;;;;;;;;;;;;;;7.71;94.82;102343.38;5066371;28;947;-71
2023/05/24 04:58:15;;;;;;;;;;;;;;;7.74;93.98;102348.38;5067793;28;1002;-70
2023/05/24 05:00:41;;;;;;;;;;;;;;;7.78;93.55;102349.94;5066657;28;1145;-70
2023/05/24 05:03:07;;;;;;;;;;;;;;;7.80;95.02;102353.31;5042316;28;1302;-70
2023/05/24 05:05:32;;;;;;;;;;;;;;;7.83;93.93;102358.31;5066659;28;1995;-71
2023/05/24 05:07:57;;;;;;;;;;;;;;;7.87;94.42;102349.53;5066181;28;1086;-69
2023/05/24 05:10:22;;;;;;;;;;;;;;;7.89;94.73;102352.88;5065917;28;1061;-71
2023/05/24 05:12:48;;;;;;;;;;;;;;;7.92;94.48;102345.00;5064329;28;1131;-70
2023/05/24 05:15:13;;;;;;;;;;;;;;;7.97;94.30;102361.13;5059095;28;1101;-70
2023/05/24 05:17:38;;;;;;;;;;;;;;;8.02;94.68;102349.72;5067790;28;1103;-70
2023/05/24 05:20:04;;;;;;;;;;;;;;;8.04;95.09;102345.34;5064229;28;1562;-70
2023/05/24 05:22:30;;;;;;;;;;;;;;;8.11;94.20;102351.88;5060533;28;1107;-70
2023/05/24 05:24:55;;;;;;;;;;;;;;;8.16;94.78;102352.50;5060362;28;1953;-70
2023/05/24 05:27:20;;;;;;;;;;;;;;;8.18;95.96;102353.25;5053582;28;1411;-71
2023/05/24 05:29:45;;;;;;;;;;;;;;;8.24;95.77;102358.16;5064226;28;1156;-70
2023/05/24 05:32:11;;;;;;;;;;;;;;;8.29;94.81;102353.59;5063070;28;1150;-70
2023/05/24 05:34:36;;;;;;;;;;;;;;;8.36;96.38;102357.59;5056498;28;1118;-70
2023/05/24 05:37:01;;;;;;;;;;;;;;;8.42;95.12;102352.13;5058801;28;1108;-71
2023/05/24 05:39:26;;;;;;;;;;;;;;;8.49;93.77;102358.69;5043994;28;1331;-70
2023/05/24 05:41:52;;;;;;;;;;;;;;;8.55;93.89;102346.38;5061270;28;1163;-70
2023/05/24 05:44:17;;;;;;;;;;;;;;;8.62;95.10;102352.94;5044851;28;1926;-70
2023/05/24 05:46:44;;;;;;;;;;;;;;;8.68;94.93;102357.78;5060608;28;1124;-70
2023/05/24 05:49:10;;;;;;;;;;;;;;;8.75;95.50;102365.16;5046658;28;1252;-71
2023/05/24 05:51:37;;;;;;;;;;;;;;;8.81;94.70;102374.38;5064562;28;1108;-70
2023/05/24 05:54:02;;;;;;;;;;;;;;;8.90;94.70;102363.59;5066356;28;1104;-71
2023/05/24 05:56:27;;;;;;;;;;;;;;;8.98;94.46;102374.38;5042126;28;1339;-70
2023/05/24 05:58:53;;;;;;;;;;;;;;;9.06;94.28;102363.66;5070866;28;930;-69
2023/05/24 06:01:18;;;;;;;;;;;;;;;9.14;93.45;102356.34;5071730;28;1086;-71
2023/05/24 06:03:43;;;;;;;;;;;;;;;9.19;94.32;102358.69;5069319;28;1910;-71
2023/05/24 06:06:08;;;;;;;;;;;;;;;9.28;93.45;102360.78;5068153;28;1089;-70
2023/05/24 06:08:34;;;;;;;;;;;;;;;9.36;94.07;102361.25;5069123;28;1145;-70
2023/05/24 06:11:00;;;;;;;;;;;;;;;9.44;94.12;102364.25;5066197;28;1374;-70
2023/05/24 06:13:27;;;;;;;;;;;;;;;9.52;93.77;102367.31;5063086;28;1397;-69
2023/05/24 06:15:52;;;;;;;;;;;;;;;9.60;92.92;102363.47;5060542;28;1159;-70
2023/05/24 06:18:17;;;;;;;;;;;;;;;9.68;93.05;102366.47;5068600;28;1197;-69
2023/05/24 06:20:43;;;;;;;;;;;;;;;9.78;92.06;102368.50;5060525;28;1092;-72
2023/05/24 06:23:08;;;;;;;;;;;;;;;9.83;91.55;102365.66;5061656;28;1074;-71
2023/05/24 06:25:33;;;;;;;;;;;;;;;9.88;90.78;102374.03;5067480;28;1918;-69
2023/05/24 06:27:59;;;;;;;;;;;;;;;9.92;89.83;102378.13;5070731;28;1171;-70
2023/05/24 06:30:25;;;;;;;;;;;;;;;9.95;90.45;102375.38;5070193;28;1070;-70
2023/05/24 06:32:50;;;;;;;;;;;;;;;10.03;90.56;102373.19;5069446;28;1336;-69
2023/05/24 06:35:15;;;;;;;;;;;;;;;10.09;90.06;102383.25;5068724;28;1164;-70
2023/05/24 06:37:41;;;;;;;;;;;;;;;10.18;89.33;102386.25;5063822;28;1278;-71
2023/05/24 06:40:08;;;;;;;;;;;;;;;10.21;88.03;102386.09;5069404;28;1091;-73
2023/05/24 06:42:33;;;;;;;;;;;;;;;10.26;88.26;102391.84;5068059;28;1025;-71
2023/05/24 06:44:59;;;;;;;;;;;;;;;10.33;88.72;102390.63;5067851;28;1972;-70
2023/05/24 06:47:24;;;;;;;;;;;;;;;10.42;86.59;102379.72;5068139;28;1074;-69
2023/05/24 06:49:49;;;;;;;;;;;;;;;10.46;85.04;102394.19;5066230;28;1104;-71
2023/05/24 06:52:15;;;;;;;;;;;;;;;10.45;85.23;102384.75;5066537;28;1021;-71
2023/05/24 06:54:40;;;;;;;;;;;;;;;10.51;85.82;102384.41;5061551;28;1122;-72
2023/05/24 06:57:05;;;;;;;;;;;;;;;10.54;85.41;102394.59;5059348;28;1005;-72
2023/05/24 06:59:30;;;;;;;;;;;;;;;10.63;85.14;102396.69;5075254;28;1008;-70
2023/05/24 07:01:56;;;;;;;;;;;;;;;10.65;83.10;102396.59;5066818;28;1101;-70
2023/05/24 07:04:23;;;;;;;;;;;;;;;10.71;83.58;102390.22;5067204;28;1901;-71
2023/05/24 07:06:48;;;;;;;;;;;;;;;10.80;83.45;102384.50;5036909;28;1184;-70
2023/05/24 07:09:13;;;;;;;;;;;;;;;10.79;84.01;102390.63;5048816;28;1400;-72
2023/05/24 07:11:39;;;;;;;;;;;;;;;10.89;83.66;102394.34;5061582;28;1088;-71
2023/05/24 07:14:05;;;;;;;;;;;;;;;10.91;84.09;102395.09;5040776;28;1354;-71
2023/05/24 07:16:30;;;;;;;;;;;;;;;11.06;83.12;102407.16;5055910;28;1478;-71
2023/05/24 07:18:57;;;;;;;;;;;;;;;11.08;81.61;102402.75;5066523;28;1220;-71
2023/05/24 07:21:22;;;;;;;;;;;;;;;11.05;81.79;102408.09;5064683;28;1502;-71
2023/05/24 07:23:48;;;;;;;;;;;;;;;11.05;81.68;102410.69;5058542;28;1953;-71
2023/05/24 07:26:13;;;;;;;;;;;;;;;11.08;82.36;102399.31;5046636;28;1253;-72
2023/05/24 07:28:39;;;;;;;;;;;;;;;11.09;81.67;102401.81;5065624;28;1060;-71
2023/05/24 07:31:04;;;;;;;;;;;;;;;11.10;82.24;102403.47;5066068;28;1735;-72
2023/05/24 07:33:30;;;;;;;;;;;;;;;11.14;82.49;102402.38;5063750;28;1562;-71
2023/05/24 07:35:55;;;;;;;;;;;;;;;11.21;81.86;102397.66;5060300;28;1804;-72
2023/05/24 07:38:20;;;;;;;;;;;;;;;11.24;81.67;102405.28;5057958;28;1723;-74
2023/05/24 07:40:46;;;;;;;;;;;;;;;11.27;81.25;102409.44;5061186;28;1506;-71
2023/05/24 07:43:11;;;;;;;;;;;;;;;11.33;81.74;102404.72;5043699;28;1678;-73
2023/05/24 07:45:36;;;;;;;;;;;;;;;11.37;80.65;102403.63;5060049;28;1987;-71
2023/05/24 07:48:01;;;;;;;;;;;;;;;11.38;79.81;102407.06;5058625;28;1123;-72
2023/05/24 07:50:28;;;;;;;;;;;;;;;11.40;80.22;102405.19;5048341;28;1436;-71
2023/05/24 07:52:53;;;;;;;;;;;;;;;11.54;82.07;102404.38;5067996;28;1087;-71
2023/05/24 07:55:19;;;;;;;;;;;;;;;11.68;79.46;102410.38;5049925;28;1334;-71
2023/05/24 07:57:44;;;;;;;;;;;;;;;11.79;81.02;102401.09;5067773;28;1093;-72
2023/05/24 08:00:13;;;;;;;;;;;;;;;11.89;79.78;102404.84;5065515;28;1071;-72
2023/05/24 08:02:38;;;;;;;;;;;;;;;11.93;79.62;102401.13;5053685;28;1653;-72
2023/05/24 08:05:04;;;;;;;;;;;;;;;11.95;78.47;102404.47;5047137;28;1902;-71
2023/05/24 08:07:29;;;;;;;;;;;;;;;11.99;78.50;102403.34;5063543;28;1298;-72
2023/05/24 08:09:54;;;;;;;;;;;;;;;11.98;77.96;102406.03;5059893;28;1069;-73
2023/05/24 08:12:19;;;;;;;;;;;;;;;12.01;78.07;102411.88;5066287;28;1005;-71
2023/05/24 08:14:45;;;;;;;;;;;;;;;12.05;74.80;102397.75;5066639;28;1226;-72
2023/05/24 08:17:10;;;;;;;;;;;;;;;12.17;76.60;102396.16;5055210;28;1051;-71
2023/05/24 08:19:36;;;;;;;;;;;;;;;12.25;75.44;102393.06;5048437;28;1289;-71
2023/05/24 08:22:03;;;;;;;;;;;;;;;12.36;76.72;102395.81;5056666;28;1065;-73
2023/05/24 08:24:30;;;;;;;;;;;;;;;12.48;76.14;102389.81;5061303;28;1968;-72
2023/05/24 08:26:55;;;;;;;;;;;;;;;12.54;76.03;102404.19;5070322;28;1036;-71
2023/05/24 08:29:21;;;;;;;;;;;;;;;12.52;74.80;102391.28;5055765;28;1232;-71
2023/05/24 08:31:46;;;;;;;;;;;;;;;12.56;75.63;102392.78;5048411;28;1542;-72
2023/05/24 08:34:12;;;;;;;;;;;;;;;12.61;74.13;102392.44;5044841;28;1270;-72
2023/05/24 08:36:37;;;;;;;;;;;;;;;12.59;73.48;102389.97;5067568;28;1099;-71
2023/05/24 08:39:03;;;;;;;;;;;;;;;12.61;74.23;102384.63;5045502;28;1318;-71
2023/05/24 08:41:31;;;;;;;;;;;;;;;12.55;73.30;102385.88;5067151;28;1001;-72
2023/05/24 08:43:59;;;;;;;;;;;;;;;12.61;72.72;102384.63;5060597;28;1965;-73
2023/05/24 08:46:24;;;;;;;;;;;;;;;12.72;73.40;102376.97;5038122;28;1366;-73
2023/05/24 08:48:50;;;;;;;;;;;;;;;12.82;71.48;102385.00;5063474;28;1206;-71
2023/05/24 08:51:16;;;;;;;;;;;;;;;12.92;69.44;102379.09;5062756;28;1268;-73
2023/05/24 08:53:47;;;;;;;;;;;;;;;13.06;71.26;102372.94;5059602;28;1570;-71
2023/05/24 08:56:16;;;;;;;;;;;;;;;13.23;70.11;102372.66;5060763;28;954;-72
2023/05/24 08:58:41;;;;;;;;;;;;;;;13.22;63.44;102378.00;5061928;28;1249;-71
2023/05/24 09:01:07;;;;;;;;;;;;;;;13.26;68.33;102371.66;5066219;28;1175;-71
2023/05/24 09:03:35;;;;;;;;;;;;;;;13.35;68.08;102380.59;5055314;28;1951;-72
2023/05/24 09:06:01;;;;;;;;;;;;;;;13.40;69.88;102373.28;5057697;28;1025;-72
2023/05/24 09:08:27;;;;;;;;;;;;;;;13.53;68.21;102366.28;5053007;28;1163;-71
2023/05/24 09:10:54;;;;;;;;;;;;;;;13.66;67.42;102364.50;5060484;28;1041;-71
2023/05/24 09:13:19;;;;;;;;;;;;;;;13.78;69.28;102374.06;5062310;28;1112;-71
2023/05/24 09:15:45;;;;;;;;;;;;;;;13.90;67.40;102371.53;5055433;28;1082;-71
2023/05/24 09:18:10;;;;;;;;;;;;;;;14.02;68.57;102371.50;5059846;28;1082;-73
2023/05/24 09:20:35;;;;;;;;;;;;;;;14.20;69.27;102369.34;5061323;28;1243;-73
2023/05/24 09:23:02;;;;;;;;;;;;;;;14.28;65.99;102364.41;5062488;28;1326;-72
2023/05/24 09:25:28;;;;;;;;;;;;;;;14.30;67.23;102372.94;5062754;28;1918;-72
2023/05/24 09:27:55;;;;;;;;;;;;;;;14.33;66.36;102374.50;5056316;28;1093;-71
2023/05/24 09:30:20;;;;;;;;;;;;;;;14.23;65.77;102379.56;5064673;28;1024;-72
2023/05/24 09:32:56;;;;;;;;;;;;;;;14.21;65.76;102367.56;5043243;28;1310;-72
2023/05/24 09:35:21;;;;;;;;;;;;;;;14.14;65.43;102364.56;5043095;28;1255;-71
2023/05/24 09:37:47;;;;;;;;;;;;;;;14.09;65.45;102366.66;5062539;28;1108;-71
2023/05/24 09:40:18;;;;;;;;;;;;;;;14.08;65.98;102375.44;5063000;28;1055;-71
2023/05/24 09:42:44;;;;;;;;;;;;;;;14.09;66.40;102371.88;5047888;28;1383;-72
2023/05/24 09:45:10;;;;;;;;;;;;;;;14.12;65.10;102376.91;5065219;28;1895;-72
2023/05/24 09:47:37;;;;;;;;;;;;;;;14.05;64.96;102375.69;5065795;28;1141;-72
2023/05/24 09:50:03;;;;;;;;;;;;;;;14.06;66.02;102379.94;5065002;28;1232;-72
2023/05/24 09:52:28;;;;;;;;;;;;;;;14.04;64.58;102373.97;5045851;28;1594;-72
2023/05/24 09:54:53;;;;;;;;;;;;;;;14.03;64.58;102380.16;5065632;28;1181;-71
2023/05/24 09:57:21;;;;;;;;;;;;;;;14.02;65.68;102381.09;5067601;28;990;-72
2023/05/24 09:59:47;;;;;;;;;;;;;;;13.98;64.68;102379.63;5045453;28;1288;-72
2023/05/24 10:02:12;;;;;;;;;;;;;;;13.91;64.31;102379.25;5063276;28;1573;-73
2023/05/24 10:04:38;;;;;;;;;;;;;;;13.86;65.47;102380.50;5067145;28;1901;-72
2023/05/24 10:07:05;;;;;;;;;;;;;;;13.83;65.71;102381.59;5063319;28;1162;-72
2023/05/24 10:09:32;;;;;;;;;;;;;;;13.76;65.36;102386.41;5061103;28;1400;-72
2023/05/24 10:12:01;;;;;;;;;;;;;;;13.76;65.74;102386.41;5058893;28;1156;-71
2023/05/24 10:14:26;;;;;;;;;;;;;;;13.72;65.24;102379.72;5062728;28;1112;-71
2023/05/24 10:16:53;;;;;;;;;;;;;;;13.66;64.30;102385.38;5065132;28;1107;-73
2023/05/24 10:19:18;;;;;;;;;;;;;;;13.61;63.92;102379.63;5057443;28;868;-72
2023/05/24 10:21:43;;;;;;;;;;;;;;;13.60;64.55;102380.59;5045251;28;1308;-72
2023/05/24 10:24:10;;;;;;;;;;;;;;;13.60;63.44;102375.38;5065710;28;1960;-72
2023/05/24 10:26:37;;;;;;;;;;;;;;;13.59;63.36;102378.06;5058039;28;1058;-72
2023/05/24 10:29:05;;;;;;;;;;;;;;;13.57;63.69;102380.78;5065799;28;1096;-72
2023/05/24 10:31:32;;;;;;;;;;;;;;;13.59;64.44;102378.94;5071479;28;1097;-72
2023/05/24 10:33:58;;;;;;;;;;;;;;;13.57;63.39;102372.13;5062880;28;950;-72
2023/05/24 10:36:24;;;;;;;;;;;;;;;13.52;63.72;102377.66;5063070;28;960;-72
2023/05/24 10:38:50;;;;;;;;;;;;;;;13.55;64.94;102377.47;5057641;28;1151;-72
2023/05/24 10:41:16;;;;;;;;;;;;;;;13.59;64.28;102378.94;5070356;28;1169;-72
2023/05/24 10:43:44;;;;;;;;;;;;;;;13.65;65.73;102378.50;5054973;28;1898;-72
2023/05/24 10:46:09;;;;;;;;;;;;;;;13.72;65.39;102379.72;5068930;28;1048;-72
2023/05/24 10:48:35;;;;;;;;;;;;;;;13.71;65.01;102375.44;5070098;28;1131;-71
2023/05/24 10:51:21;;;;;;;;;;;;;;;13.73;64.66;102376.16;5069247;28;1149;-71
2023/05/24 10:53:48;;;;;;;;;;;;;;;13.79;64.75;102374.91;5069026;28;1145;-71
2023/05/24 10:56:14;;;;;;;;;;;;;;;13.79;66.09;102378.34;5069828;28;997;-71
2023/05/24 10:58:54;;;;;;;;;;;;;;;13.84;65.43;102374.59;5069661;28;1136;-72
2023/05/24 11:01:25;;;;;;;;;;;;;;;13.93;65.88;102366.09;5061288;28;1061;-71
2023/05/24 11:03:51;;;;;;;;;;;;;;;14.02;65.75;102374.09;5037757;28;1889;-72
2023/05/24 11:06:16;;;;;;;;;;;;;;;14.13;65.70;102368.13;5069005;28;1123;-72
2023/05/24 11:08:45;;;;;;;;;;;;;;;14.21;66.08;102365.78;5046505;28;1263;-72
2023/05/24 11:11:11;;;;;;;;;;;;;;;14.30;64.69;102367.72;5046581;28;1331;-72
2023/05/24 11:13:37;;;;;;;;;;;;;;;14.37;65.64;102364.66;5061778;28;1624;-72
2023/05/24 11:16:02;;;;;;;;;;;;;;;14.45;64.46;102363.19;5058285;28;1616;-72
2023/05/24 11:18:28;;;;;;;;;;;;;;;14.49;64.92;102363.81;5071406;28;1185;-72
2023/05/24 11:20:55;;;;;;;;;;;;;;;14.54;63.89;102361.69;5059922;28;1371;-73
2023/05/24 11:23:20;;;;;;;;;;;;;;;14.44;61.08;102371.94;5062408;28;1156;-71
2023/05/24 11:25:46;;;;;;;;;;;;;;;14.35;62.06;102367.41;5068851;28;1922;-72
2023/05/24 11:28:11;;;;;;;;;;;;;;;14.21;61.13;102370.16;5040455;28;1360;-71
2023/05/24 11:30:39;;;;;;;;;;;;;;;14.16;62.32;102374.88;5075819;28;1260;-71
2023/05/24 11:33:12;;;;;;;;;;;;;;;14.12;62.10;102370.84;5070871;28;1141;-71
2023/05/24 11:35:37;;;;;;;;;;;;;;;14.11;62.70;102359.59;5067739;28;989;-71
2023/05/24 11:38:03;;;;;;;;;;;;;;;14.11;62.06;102364.81;5068121;28;1104;-71
2023/05/24 11:40:29;;;;;;;;;;;;;;;14.17;62.60;102369.56;5048143;28;1373;-72
2023/05/24 11:42:54;;;;;;;;;;;;;;;14.19;61.88;102362.47;5065596;28;1410;-72
2023/05/24 11:45:20;;;;;;;;;;;;;;;14.22;61.78;102366.59;5060411;28;1933;-71
2023/05/24 11:47:47;;;;;;;;;;;;;;;14.28;62.27;102364.41;5065727;28;1115;-71
2023/05/24 11:50:14;;;;;;;;;;;;;;;14.31;61.44;102371.16;5065353;28;1334;-70
2023/05/24 11:52:39;;;;;;;;;;;;;;;14.35;60.95;102363.00;5059884;28;1024;-73
2023/05/24 11:55:05;;;;;;;;;;;;;;;14.40;61.43;102360.06;5060561;28;1100;-72
2023/05/24 11:57:37;;;;;;;;;;;;;;;14.50;61.95;102355.00;5044433;28;1396;-70
2023/05/24 12:00:03;;;;;;;;;;;;;;;14.57;61.70;102366.69;5059019;28;1084;-71
2023/05/24 12:02:28;;;;;;;;;;;;;;;14.62;61.98;102359.31;5056209;28;1161;-71
2023/05/24 12:04:54;;;;;;;;;;;;;;;14.59;60.82;102364.78;5067443;28;1897;-72
2023/05/24 12:07:19;;;;;;;;;;;;;;;14.61;61.78;102360.28;5038064;28;1323;-71
2023/05/24 12:09:44;;;;;;;;;;;;;;;14.60;60.09;102356.84;5068646;28;1163;-71
2023/05/24 12:12:09;;;;;;;;;;;;;;;14.60;61.27;102356.00;5064313;28;1399;-71
2023/05/24 12:14:35;;;;;;;;;;;;;;;14.62;60.42;102354.09;5061761;28;1384;-71
2023/05/24 12:17:00;;;;;;;;;;;;;;;14.63;60.03;102355.78;5063514;28;1353;-75
2023/05/24 12:19:28;;;;;;;;;;;;;;;14.61;61.50;102352.44;5045421;28;1334;-72
2023/05/24 12:21:55;;;;;;;;;;;;;;;14.59;60.70;102354.34;5038066;28;1250;-71
2023/05/24 12:24:22;;;;;;;;;;;;;;;14.55;61.17;102353.72;5058079;28;1939;-71
2023/05/24 12:26:47;;;;;;;;;;;;;;;14.59;61.93;102352.56;5056233;28;1313;-72
2023/05/24 12:29:14;;;;;;;;;;;;;;;14.62;60.89;102354.09;5047364;28;1116;-72
2023/05/24 12:31:40;;;;;;;;;;;;;;;14.65;60.84;102353.88;5061771;28;1500;-74
2023/05/24 12:34:07;;;;;;;;;;;;;;;14.70;61.80;102354.38;5062157;28;1478;-71
2023/05/24 12:36:34;;;;;;;;;;;;;;;14.71;60.63;102353.44;5050899;28;1265;-71
2023/05/24 12:38:59;;;;;;;;;;;;;;;14.74;61.99;102353.22;5040334;28;1254;-72
2023/05/24 12:41:24;;;;;;;;;;;;;;;14.77;60.91;102358.19;5067413;28;1166;-70
2023/05/24 12:43:50;;;;;;;;;;;;;;;14.77;60.37;102358.19;5065356;28;2276;-71
2023/05/24 12:46:15;;;;;;;;;;;;;;;14.77;60.64;102347.75;5064371;28;1216;-72